createdAt,value
2023-01-05T00:07:07.527Z,33.33
2023-01-05T00:17:33.937Z,26.80
2023-01-05T00:27:43.253Z,32.40
2023-01-05T00:37:45.754Z,26.40
2023-01-05T00:47:48.058Z,28.73
2023-01-05T00:57:53.907Z,26.38
2023-01-05T01:07:55.617Z,26.02
2023-01-05T01:17:57.403Z,25.98
2023-01-05T01:27:59.095Z,21.35
2023-01-05T01:38:01.806Z,22.75
2023-01-05T01:48:09.208Z,23.52
2023-01-05T01:58:15.289Z,23.23
2023-01-05T02:08:25.686Z,21.10
2023-01-05T02:18:55.207Z,18.80
2023-01-05T02:29:26.028Z,23.55
2023-01-05T02:39:44.014Z,19.23
2023-01-05T02:49:45.939Z,22.55
2023-01-05T02:59:54.641Z,22.70
2023-01-05T03:09:56.654Z,22.95
2023-01-05T03:20:02.745Z,21.00
2023-01-05T03:30:26.999Z,21.20
2023-01-05T03:50:36.916Z,17.90
2023-01-05T04:00:39.615Z,20.42
2023-01-05T04:10:41.404Z,24.42
2023-01-05T04:20:43.182Z,21.83
2023-01-05T04:30:45.230Z,25.00
2023-01-05T04:40:52.131Z,21.25
2023-01-05T04:50:56.114Z,23.38
2023-01-05T05:01:02.015Z,22.00
2023-01-05T05:11:06.267Z,20.65
2023-01-05T05:21:09.000Z,17.55
2023-01-05T05:31:10.887Z,20.90
2023-01-05T05:41:13.810Z,21.40
2023-01-05T05:51:15.617Z,23.83
2023-01-05T06:01:17.562Z,23.95
2023-01-05T06:11:22.454Z,20.05
2023-01-05T06:21:24.274Z,23.75
2023-01-05T06:31:26.162Z,26.58
2023-01-05T06:41:27.931Z,22.80
2023-01-05T06:51:29.661Z,19.92
2023-01-05T07:01:39.244Z,22.15
2023-01-05T07:11:42.150Z,20.10
2023-01-05T07:21:45.029Z,24.40
2023-01-05T07:31:49.948Z,20.97
2023-01-05T07:41:51.665Z,22.23
2023-01-05T07:51:55.361Z,24.55
2023-01-05T08:12:00.564Z,23.58
2023-01-05T08:22:03.258Z,20.73
2023-01-05T08:32:11.839Z,23.52
2023-01-05T08:42:13.828Z,24.00
2023-01-05T08:52:18.606Z,28.25
2023-01-05T09:02:25.444Z,29.40
2023-01-05T09:12:33.170Z,29.33
2023-01-05T09:22:36.771Z,31.95
2023-01-05T09:32:38.575Z,28.77
2023-01-05T09:42:45.272Z,34.20
2023-01-05T09:52:49.401Z,26.92
2023-01-05T10:03:10.974Z,25.95
2023-01-05T10:13:32.150Z,20.17
2023-01-05T10:24:12.590Z,22.48
2023-01-05T10:34:22.655Z,18.73
2023-01-05T10:44:46.683Z,21.40
2023-01-05T11:05:07.186Z,25.52
2023-01-05T11:15:15.605Z,28.00
2023-01-05T11:25:33.344Z,29.25
2023-01-05T11:35:38.536Z,27.45
2023-01-05T11:45:55.899Z,10.30
2023-01-05T11:56:04.217Z,3.92
2023-01-05T12:06:24.911Z,2.92
2023-01-05T12:16:46.937Z,2.33
2023-01-05T12:27:26.661Z,3.10
2023-01-05T12:37:56.861Z,2.35
2023-01-05T12:48:12.806Z,2.13
2023-01-05T12:58:30.187Z,4.30
2023-01-05T13:08:38.484Z,2.67
2023-01-05T13:18:54.799Z,3.40
2023-01-05T13:28:57.833Z,2.03
2023-01-05T13:39:26.636Z,7.73
2023-01-05T13:49:56.363Z,10.65
2023-01-05T14:00:11.802Z,6.45
2023-01-05T14:10:25.591Z,4.45
2023-01-05T14:20:42.377Z,9.27
2023-01-05T14:30:44.127Z,5.78
2023-01-05T14:40:55.750Z,6.20
2023-01-05T14:51:20.434Z,6.05
2023-01-05T15:01:56.862Z,5.78
2023-01-05T15:12:13.770Z,3.63
2023-01-05T15:22:53.150Z,4.78
2023-01-05T15:33:27.811Z,9.00
2023-01-05T15:43:32.228Z,7.10
2023-01-05T15:53:38.316Z,6.47
2023-01-05T16:03:42.375Z,5.53
2023-01-05T16:13:52.078Z,4.72
2023-01-05T16:24:00.125Z,4.55
2023-01-05T16:34:29.628Z,6.68
2023-01-05T16:44:34.475Z,8.55
2023-01-05T16:54:41.785Z,7.45
2023-01-05T17:04:43.710Z,6.88
2023-01-05T17:14:46.832Z,3.95
2023-01-05T17:24:48.759Z,4.63
2023-01-05T17:34:56.561Z,9.57
2023-01-05T17:44:59.919Z,8.52
2023-01-05T17:55:01.775Z,4.07
2023-01-05T18:05:06.070Z,7.55
2023-01-05T18:15:10.786Z,5.85
2023-01-05T18:25:16.747Z,3.75
2023-01-05T18:35:20.653Z,1.80
2023-01-05T18:45:31.879Z,2.33
2023-01-05T18:55:34.191Z,9.60
2023-01-05T19:05:43.240Z,3.45
2023-01-05T19:15:48.261Z,5.53
2023-01-05T19:25:50.547Z,6.22
2023-01-05T19:35:52.612Z,6.30
2023-01-05T19:46:01.398Z,7.95
2023-01-05T19:56:14.279Z,3.55
2023-01-05T20:06:25.842Z,3.57
2023-01-05T20:16:28.060Z,4.75
2023-01-05T20:26:32.052Z,1.95
2023-01-05T20:36:35.716Z,9.50
2023-01-05T20:46:44.348Z,4.68
2023-01-05T21:06:46.392Z,1.80
2023-01-05T21:16:55.101Z,4.35
2023-01-05T21:26:58.274Z,4.65
2023-01-05T21:37:01.281Z,3.78
2023-01-05T21:47:06.633Z,2.93
2023-01-05T21:57:08.674Z,8.43
2023-01-05T22:07:10.589Z,7.05
2023-01-05T22:17:12.260Z,3.17
2023-01-05T22:27:14.221Z,6.57
2023-01-05T22:37:17.725Z,3.28
2023-01-05T22:47:20.716Z,2.45
2023-01-05T22:57:23.000Z,3.30
2023-01-05T23:07:28.982Z,6.53
2023-01-05T23:17:31.765Z,2.75
2023-01-05T23:27:33.609Z,3.57
2023-01-05T23:37:36.732Z,1.67
2023-01-05T23:47:38.389Z,4.70
2023-01-05T23:57:41.907Z,2.90
